Alledonia, Ohio
Current Conditions -  °F | °C
As of 9:53 AM on Sunday 23 Nov 2014 (Local Time) from KHLG Reporting Station
Broken Clouds Broken Clouds  
Wind Chill: 56°   Ceiling: 10000
Heat Index: 56°   Visibility: 10mi
Dew Point: 33°   Wind: 7mph
Humidity: 42%   Direction: 190°S
Pressure: 30.07"   Gusts: NA
Location:  39.9°N, 80.97°W
Report Text: KHLG 231453Z AUTO 19006KT 10SM FEW034 BKN100 13/01 A3007 RMK AO2 SLP186 T01330006 56006
Loading
Personal Weather Stations






























Interactive Weather Map New forecast layout! Learn more

10-Day Weather Forecast

Advertisements
Track Severe Weather on mobile